createdAt,value
2022-08-30T00:01:05.807Z,18.29
2022-08-30T00:03:42.830Z,18.24
2022-08-30T00:06:10.375Z,18.36
2022-08-30T00:08:38.361Z,18.31
2022-08-30T00:11:08.360Z,18.29
2022-08-30T00:13:35.352Z,18.18
2022-08-30T00:16:02.191Z,18.13
2022-08-30T00:18:28.903Z,18.15
2022-08-30T00:20:56.090Z,18.23
2022-08-30T00:23:23.174Z,18.08
2022-08-30T00:25:49.906Z,18.12
2022-08-30T00:28:17.144Z,18.10
2022-08-30T00:30:44.761Z,18.02
2022-08-30T00:33:12.821Z,17.99
2022-08-30T00:35:40.216Z,17.95
2022-08-30T00:38:08.811Z,18.20
2022-08-30T00:40:37.880Z,18.13
2022-08-30T00:43:10.174Z,18.09
2022-08-30T00:45:41.258Z,18.15
2022-08-30T00:48:08.187Z,18.07
2022-08-30T00:50:59.068Z,18.08
2022-08-30T00:53:31.171Z,17.97
2022-08-30T00:55:59.407Z,18.00
2022-08-30T00:58:32.136Z,18.19
2022-08-30T01:01:00.882Z,18.16
2022-08-30T01:03:29.731Z,18.27
2022-08-30T01:05:58.717Z,18.04
2022-08-30T01:08:25.366Z,18.14
2022-08-30T01:10:53.822Z,18.00
2022-08-30T01:13:22.731Z,17.99
2022-08-30T01:15:50.819Z,17.93
2022-08-30T01:18:21.291Z,17.89
2022-08-30T01:21:04.007Z,17.94
2022-08-30T01:23:32.526Z,17.89
2022-08-30T01:26:00.549Z,17.85
2022-08-30T01:28:29.022Z,17.85
2022-08-30T01:30:56.718Z,17.70
2022-08-30T01:33:24.554Z,17.68
2022-08-30T01:36:03.431Z,17.68
2022-08-30T01:38:48.041Z,17.62
2022-08-30T01:41:19.725Z,17.54
2022-08-30T01:43:47.491Z,17.50
2022-08-30T01:46:16.805Z,17.46
2022-08-30T01:48:53.797Z,17.49
2022-08-30T01:51:22.237Z,17.73
2022-08-30T01:53:49.561Z,17.68
2022-08-30T01:56:16.360Z,17.50
2022-08-30T01:58:44.119Z,17.34
2022-08-30T02:01:14.882Z,17.33
2022-08-30T02:03:44.234Z,17.43
2022-08-30T02:06:14.616Z,17.44
2022-08-30T02:08:42.554Z,17.35
2022-08-30T02:11:11.009Z,17.34
2022-08-30T02:13:39.783Z,17.31
2022-08-30T02:16:09.122Z,17.23
2022-08-30T02:18:39.271Z,17.26
2022-08-30T02:21:07.117Z,17.27
2022-08-30T02:23:34.007Z,17.16
2022-08-30T02:26:01.437Z,17.12
2022-08-30T02:28:28.987Z,17.07
2022-08-30T02:30:55.807Z,16.95
2022-08-30T02:33:22.472Z,16.95
2022-08-30T02:35:49.149Z,16.95
2022-08-30T02:38:15.958Z,17.02
2022-08-30T02:40:46.735Z,16.91
2022-08-30T02:43:13.353Z,16.77
2022-08-30T02:45:39.974Z,16.74
2022-08-30T02:48:06.663Z,16.70
2022-08-30T02:50:33.494Z,16.60
2022-08-30T02:53:00.214Z,16.65
2022-08-30T02:55:26.973Z,16.66
2022-08-30T02:57:53.676Z,16.71
2022-08-30T03:00:21.067Z,16.65
2022-08-30T03:02:48.027Z,16.56
2022-08-30T03:05:16.283Z,16.61
2022-08-30T03:07:44.181Z,16.61
2022-08-30T03:10:11.720Z,16.49
2022-08-30T03:12:41.530Z,16.58
2022-08-30T03:15:10.063Z,16.65
2022-08-30T03:17:36.628Z,16.56
2022-08-30T03:20:04.103Z,16.55
2022-08-30T03:22:30.794Z,16.48
2022-08-30T03:24:59.547Z,16.47
2022-08-30T03:27:27.387Z,16.39
2022-08-30T03:29:54.128Z,16.42
2022-08-30T03:32:21.341Z,16.34
2022-08-30T03:34:47.990Z,16.39
2022-08-30T03:37:14.585Z,16.38
2022-08-30T03:39:41.250Z,16.37
2022-08-30T03:42:07.919Z,16.33
2022-08-30T03:44:35.699Z,16.36
2022-08-30T03:47:04.035Z,16.34
2022-08-30T03:49:31.339Z,16.39
2022-08-30T03:51:57.964Z,16.32
2022-08-30T03:54:24.911Z,16.19
2022-08-30T03:56:52.000Z,16.10
2022-08-30T03:59:18.539Z,16.16
2022-08-30T04:01:45.955Z,16.21
2022-08-30T04:04:14.521Z,16.21
2022-08-30T04:06:42.903Z,16.02
2022-08-30T04:09:09.875Z,15.99
2022-08-30T04:11:36.443Z,16.06
2022-08-30T04:14:03.158Z,16.04
2022-08-30T04:16:29.831Z,16.00
2022-08-30T04:18:56.470Z,16.03
2022-08-30T04:21:23.141Z,15.96
2022-08-30T04:23:49.681Z,15.99
2022-08-30T04:26:16.480Z,16.11
2022-08-30T04:28:43.099Z,15.86
2022-08-30T04:31:15.561Z,15.88
2022-08-30T04:33:43.220Z,15.88
2022-08-30T04:36:10.933Z,15.95
2022-08-30T04:38:39.348Z,15.90
2022-08-30T04:41:16.466Z,15.81
2022-08-30T04:43:48.450Z,15.84
2022-08-30T04:46:15.247Z,15.84
2022-08-30T04:48:41.941Z,15.78
2022-08-30T04:51:11.018Z,15.84
2022-08-30T04:53:37.603Z,15.90
2022-08-30T04:56:09.974Z,16.06
2022-08-30T04:58:36.906Z,16.08
2022-08-30T05:01:04.531Z,16.19
2022-08-30T05:03:31.311Z,16.21
2022-08-30T05:05:57.887Z,16.31
2022-08-30T05:08:24.860Z,16.35
2022-08-30T05:10:52.354Z,16.43
2022-08-30T05:13:21.390Z,16.50
2022-08-30T05:15:57.033Z,16.55
2022-08-30T05:18:23.806Z,16.54
2022-08-30T05:20:50.371Z,16.77
2022-08-30T05:23:17.109Z,16.95
2022-08-30T05:25:43.915Z,17.06
2022-08-30T05:28:10.566Z,17.16
2022-08-30T05:30:38.336Z,17.25
2022-08-30T05:33:05.030Z,17.28
2022-08-30T05:35:31.873Z,17.32
2022-08-30T05:37:58.489Z,17.30
2022-08-30T05:40:25.440Z,17.41
2022-08-30T05:42:54.497Z,17.59
2022-08-30T05:45:21.175Z,17.64
2022-08-30T05:47:47.897Z,17.73
2022-08-30T05:50:14.887Z,17.79
2022-08-30T05:52:43.696Z,17.98
2022-08-30T05:55:11.631Z,18.13
2022-08-30T05:57:40.033Z,18.32
2022-08-30T06:00:10.678Z,18.39
2022-08-30T06:02:37.262Z,18.49
2022-08-30T06:05:04.658Z,18.78
2022-08-30T06:07:31.535Z,18.94
2022-08-30T06:09:58.186Z,19.18
2022-08-30T06:12:24.737Z,19.53
2022-08-30T06:14:51.479Z,19.86
2022-08-30T06:17:20.278Z,20.15
2022-08-30T06:19:46.837Z,20.14
2022-08-30T06:22:13.434Z,20.40
2022-08-30T06:24:56.406Z,20.65
2022-08-30T06:27:24.315Z,20.95
2022-08-30T06:29:52.375Z,20.99
2022-08-30T06:32:19.164Z,20.90
2022-08-30T06:34:45.772Z,21.04
2022-08-30T06:37:12.369Z,21.03
2022-08-30T06:39:57.578Z,21.22
2022-08-30T06:42:30.482Z,21.48
2022-08-30T06:44:57.772Z,21.56
2022-08-30T06:47:24.370Z,21.68
2022-08-30T06:49:50.920Z,21.87
2022-08-30T06:52:17.475Z,22.15
2022-08-30T06:54:45.830Z,22.41
2022-08-30T06:57:12.815Z,22.67
2022-08-30T06:59:39.765Z,22.66
2022-08-30T07:02:07.932Z,22.57
2022-08-30T07:04:35.035Z,22.91
2022-08-30T07:07:01.889Z,23.03
2022-08-30T07:09:28.526Z,23.30
2022-08-30T07:11:55.497Z,23.43
2022-08-30T07:14:22.402Z,23.21
2022-08-30T07:16:50.822Z,23.40
2022-08-30T07:19:20.509Z,23.60
2022-08-30T07:21:49.232Z,23.71
2022-08-30T07:24:16.800Z,23.62
2022-08-30T07:26:49.848Z,23.53
2022-08-30T07:29:17.872Z,23.42
2022-08-30T07:31:44.986Z,23.73
2022-08-30T07:34:11.636Z,23.64
2022-08-30T07:36:39.168Z,23.71
2022-08-30T07:39:07.240Z,23.44
2022-08-30T07:41:38.856Z,23.54
2022-08-30T07:44:07.389Z,23.97
2022-08-30T07:46:34.859Z,24.06
2022-08-30T07:49:04.171Z,24.15
2022-08-30T07:51:32.434Z,24.15
2022-08-30T07:53:59.246Z,24.25
2022-08-30T07:56:26.124Z,24.38
2022-08-30T07:58:53.530Z,24.72
2022-08-30T08:01:21.335Z,24.89
2022-08-30T08:03:50.272Z,24.85
2022-08-30T08:06:19.975Z,25.33
2022-08-30T08:08:46.991Z,25.08
2022-08-30T08:11:17.340Z,24.87
2022-08-30T08:13:52.864Z,24.93
2022-08-30T08:16:23.800Z,24.64
2022-08-30T08:18:51.329Z,24.71
2022-08-30T08:21:18.014Z,24.58
2022-08-30T08:23:44.929Z,24.75
2022-08-30T08:26:11.513Z,24.70
2022-08-30T08:28:38.171Z,24.57
2022-08-30T08:31:17.366Z,24.58
2022-08-30T08:33:44.486Z,24.50
2022-08-30T08:36:11.031Z,24.22
2022-08-30T08:38:37.885Z,24.38
2022-08-30T08:41:50.182Z,24.47
2022-08-30T08:44:41.074Z,24.76
2022-08-30T08:47:37.506Z,25.27
2022-08-30T08:50:10.291Z,25.21
2022-08-30T08:53:20.532Z,25.69
2022-08-30T08:55:52.832Z,26.06
2022-08-30T08:58:26.031Z,26.38
2022-08-30T09:00:54.526Z,26.80
2022-08-30T09:03:22.841Z,26.89
2022-08-30T09:05:50.417Z,26.88
2022-08-30T09:08:19.723Z,26.96
2022-08-30T09:11:01.727Z,26.56
2022-08-30T09:13:28.566Z,26.77
2022-08-30T09:15:59.484Z,26.63
2022-08-30T09:18:51.368Z,26.39
2022-08-30T09:21:24.929Z,26.60
2022-08-30T09:23:59.337Z,26.37
2022-08-30T09:26:32.101Z,26.16
2022-08-30T09:29:00.856Z,26.11
2022-08-30T09:31:48.992Z,26.02
2022-08-30T09:34:23.859Z,25.93
2022-08-30T09:36:56.081Z,26.04
2022-08-30T09:39:32.736Z,26.10
2022-08-30T09:42:21.103Z,26.44
2022-08-30T09:44:47.936Z,26.92
2022-08-30T09:47:31.411Z,27.15
2022-08-30T09:50:17.691Z,27.31
2022-08-30T09:52:59.637Z,27.73
2022-08-30T09:55:32.205Z,26.93
2022-08-30T09:58:02.038Z,27.46
2022-08-30T10:00:31.613Z,27.76
2022-08-30T10:03:04.429Z,28.01
2022-08-30T10:05:36.322Z,28.45
2022-08-30T10:08:16.480Z,28.25
2022-08-30T10:11:06.462Z,28.06
2022-08-30T10:13:48.759Z,28.05
2022-08-30T10:16:40.092Z,28.64
2022-08-30T10:19:52.345Z,28.26
2022-08-30T10:22:30.358Z,28.36
2022-08-30T10:25:25.459Z,28.13
2022-08-30T10:28:16.044Z,28.10
2022-08-30T10:30:50.210Z,28.35
2022-08-30T10:33:22.996Z,27.99
2022-08-30T10:35:58.504Z,27.74
2022-08-30T10:38:33.309Z,27.86
2022-08-30T10:41:25.172Z,27.88
2022-08-30T10:43:54.617Z,28.08
2022-08-30T10:46:27.476Z,28.13
2022-08-30T10:48:56.085Z,28.20
2022-08-30T10:51:31.846Z,28.34
2022-08-30T10:54:12.421Z,27.63
2022-08-30T10:56:48.610Z,28.03
2022-08-30T10:59:20.864Z,28.14
2022-08-30T11:02:18.117Z,28.62
2022-08-30T11:04:56.959Z,28.59
2022-08-30T11:07:52.125Z,28.65
2022-08-30T11:10:49.926Z,28.78
2022-08-30T11:13:38.457Z,28.71
2022-08-30T11:16:08.011Z,28.63
2022-08-30T11:18:57.174Z,28.81
2022-08-30T11:21:36.667Z,28.85
2022-08-30T11:24:15.035Z,29.01
2022-08-30T11:26:50.818Z,29.13
2022-08-30T11:29:27.040Z,29.32
2022-08-30T11:32:18.509Z,29.71
2022-08-30T11:34:45.237Z,29.77
2022-08-30T11:37:33.819Z,29.58
2022-08-30T11:40:06.403Z,29.48
2022-08-30T11:42:35.976Z,29.40
2022-08-30T11:45:25.210Z,29.69
2022-08-30T11:47:59.643Z,29.78
2022-08-30T11:51:00.490Z,30.28
2022-08-30T11:53:33.583Z,30.46
2022-08-30T11:56:15.668Z,31.02
2022-08-30T11:58:51.977Z,30.61
2022-08-30T12:01:50.143Z,30.82
2022-08-30T12:04:18.215Z,31.08
2022-08-30T12:07:05.596Z,31.34
2022-08-30T12:09:35.170Z,31.66
2022-08-30T12:12:05.924Z,31.64
2022-08-30T12:14:51.638Z,31.85
2022-08-30T12:17:48.382Z,31.16
2022-08-30T12:20:24.167Z,31.42
2022-08-30T12:22:52.447Z,31.70
2022-08-30T12:25:31.944Z,31.76
2022-08-30T12:28:16.150Z,31.91
2022-08-30T12:30:43.506Z,32.04
2022-08-30T12:33:22.986Z,31.57
2022-08-30T12:35:58.420Z,31.83
2022-08-30T12:38:28.117Z,32.09
2022-08-30T12:40:58.118Z,32.63
2022-08-30T12:43:50.367Z,32.81
2022-08-30T12:46:19.153Z,32.86
2022-08-30T12:48:48.341Z,32.94
2022-08-30T12:51:41.129Z,32.72
2022-08-30T12:54:21.574Z,32.68
2022-08-30T12:57:25.604Z,32.39
2022-08-30T12:59:59.218Z,32.63
2022-08-30T13:02:52.897Z,32.58
2022-08-30T13:05:32.421Z,32.22
2022-08-30T13:08:48.858Z,32.71
2022-08-30T13:11:21.359Z,32.89
2022-08-30T13:14:31.251Z,33.05
2022-08-30T13:17:20.315Z,32.48
2022-08-30T13:19:59.119Z,32.85
2022-08-30T13:22:37.892Z,32.67
2022-08-30T13:25:06.901Z,32.98
2022-08-30T13:27:36.930Z,32.93
2022-08-30T13:30:13.497Z,33.11
2022-08-30T13:32:40.845Z,33.49
2022-08-30T13:35:09.357Z,33.32
2022-08-30T13:37:49.940Z,33.80
2022-08-30T13:40:18.673Z,34.07
2022-08-30T13:42:45.371Z,34.85
2022-08-30T13:48:01.363Z,34.64
2022-08-30T13:50:28.139Z,34.30
2022-08-30T13:52:57.151Z,34.07
2022-08-30T13:55:24.049Z,33.79
2022-08-30T13:57:54.762Z,33.64
2022-08-30T14:00:22.515Z,33.32
2022-08-30T14:02:54.460Z,33.58
2022-08-30T14:05:48.836Z,33.59
2022-08-30T14:11:15.963Z,32.75
2022-08-30T14:16:34.477Z,33.34
2022-08-30T14:19:01.498Z,33.51
2022-08-30T14:24:42.289Z,33.18
2022-08-30T14:27:09.011Z,32.32
2022-08-30T14:29:36.173Z,31.96
2022-08-30T14:32:03.263Z,31.71
2022-08-30T14:34:30.015Z,31.17
2022-08-30T14:36:56.671Z,31.29
2022-08-30T14:39:24.253Z,30.98
2022-08-30T14:41:53.277Z,30.86
2022-08-30T14:44:22.011Z,30.39
2022-08-30T14:46:50.935Z,30.43
2022-08-30T14:49:18.665Z,30.09
2022-08-30T14:51:48.381Z,29.56
2022-08-30T14:54:17.006Z,29.38
2022-08-30T14:56:43.787Z,28.97
2022-08-30T14:59:13.217Z,28.99
2022-08-30T15:01:40.442Z,28.63
2022-08-30T15:04:09.200Z,28.51
2022-08-30T15:06:37.670Z,28.20
2022-08-30T15:09:06.066Z,28.16
2022-08-30T15:11:33.246Z,27.89
2022-08-30T15:14:00.375Z,27.87
2022-08-30T15:16:33.008Z,27.75
2022-08-30T15:19:00.389Z,27.35
2022-08-30T15:21:33.032Z,27.08
2022-08-30T15:24:01.567Z,27.09
2022-08-30T15:26:28.514Z,26.83
2022-08-30T15:28:56.076Z,26.86
2022-08-30T15:31:28.664Z,26.87
2022-08-30T15:33:55.580Z,26.64
2022-08-30T15:36:24.164Z,26.66
2022-08-30T15:38:52.872Z,26.75
2022-08-30T15:41:19.630Z,26.57
2022-08-30T15:43:46.290Z,26.46
2022-08-30T15:46:29.379Z,26.18
2022-08-30T15:49:00.253Z,26.35
2022-08-30T15:51:27.090Z,26.20
2022-08-30T15:54:03.449Z,26.21
2022-08-30T15:56:31.082Z,26.43
2022-08-30T15:58:57.768Z,26.49
2022-08-30T16:01:30.754Z,26.55
2022-08-30T16:03:58.615Z,26.68
2022-08-30T16:06:28.586Z,26.72
2022-08-30T16:08:56.235Z,26.67
2022-08-30T16:11:24.813Z,26.55
2022-08-30T16:13:56.314Z,26.26
2022-08-30T16:16:23.948Z,26.09
2022-08-30T16:18:53.892Z,25.70
2022-08-30T16:21:26.643Z,25.91
2022-08-30T16:23:56.345Z,25.82
2022-08-30T16:26:24.054Z,25.60
2022-08-30T16:28:50.738Z,25.38
2022-08-30T16:31:18.191Z,25.52
2022-08-30T16:33:45.971Z,25.49
2022-08-30T16:36:13.326Z,25.26
2022-08-30T16:38:42.115Z,25.19
2022-08-30T16:41:15.606Z,25.05
2022-08-30T16:43:45.829Z,25.00
2022-08-30T16:46:15.934Z,25.02
2022-08-30T16:48:44.774Z,24.73
2022-08-30T16:51:14.810Z,24.48
2022-08-30T16:53:41.852Z,24.03
2022-08-30T16:56:18.407Z,23.99
2022-08-30T16:58:46.172Z,23.91
2022-08-30T17:01:13.099Z,23.73
2022-08-30T17:03:40.711Z,23.80
2022-08-30T17:06:08.039Z,23.73
2022-08-30T17:08:35.035Z,23.80
2022-08-30T17:11:01.761Z,23.73
2022-08-30T17:13:28.688Z,23.53
2022-08-30T17:15:56.466Z,23.33
2022-08-30T17:18:23.639Z,23.30
2022-08-30T17:20:50.232Z,23.11
2022-08-30T17:23:17.063Z,23.09
2022-08-30T17:25:44.287Z,22.95
2022-08-30T17:28:11.214Z,22.85
2022-08-30T17:30:38.312Z,22.48
2022-08-30T17:33:06.918Z,22.46
2022-08-30T17:35:33.467Z,22.37
2022-08-30T17:38:00.055Z,22.28
2022-08-30T17:40:28.167Z,22.37
2022-08-30T17:42:54.840Z,22.15
2022-08-30T17:45:21.555Z,22.16
2022-08-30T17:47:48.712Z,22.25
2022-08-30T17:50:16.535Z,22.34
2022-08-30T17:52:46.444Z,22.16
2022-08-30T17:55:13.988Z,22.18
2022-08-30T17:57:42.008Z,22.11
2022-08-30T18:00:15.657Z,21.91
2022-08-30T18:02:42.875Z,21.65
2022-08-30T18:05:10.116Z,21.87
2022-08-30T18:07:37.024Z,22.13
2022-08-30T18:10:04.863Z,21.90
2022-08-30T18:12:31.494Z,21.70
2022-08-30T18:15:00.802Z,21.73
2022-08-30T18:17:28.436Z,21.65
2022-08-30T18:19:54.991Z,21.71
2022-08-30T18:22:24.481Z,21.71
2022-08-30T18:24:51.454Z,21.88
2022-08-30T18:27:18.214Z,21.95
2022-08-30T18:29:45.064Z,22.05
2022-08-30T18:32:11.644Z,22.08
2022-08-30T18:34:40.399Z,22.25
2022-08-30T18:37:11.450Z,22.29
2022-08-30T18:39:39.599Z,22.13
2022-08-30T18:42:09.002Z,22.16
2022-08-30T18:44:37.207Z,22.10
2022-08-30T18:47:05.695Z,22.04
2022-08-30T18:49:53.942Z,22.11
2022-08-30T18:52:20.688Z,22.05
2022-08-30T18:54:52.788Z,21.99
2022-08-30T18:57:21.000Z,21.75
2022-08-30T18:59:48.633Z,21.39
2022-08-30T19:02:16.728Z,20.74
2022-08-30T19:04:46.379Z,20.58
2022-08-30T19:07:15.952Z,20.34
2022-08-30T19:09:43.386Z,20.01
2022-08-30T19:12:11.954Z,19.99
2022-08-30T19:14:39.237Z,19.98
2022-08-30T19:17:07.175Z,19.78
2022-08-30T19:19:37.253Z,19.52
2022-08-30T19:22:15.225Z,19.32
2022-08-30T19:24:41.983Z,19.66
2022-08-30T19:27:10.224Z,19.51
2022-08-30T19:29:37.013Z,19.56
2022-08-30T19:32:04.399Z,19.79
2022-08-30T19:34:30.982Z,19.76
2022-08-30T19:36:57.787Z,19.89
2022-08-30T19:39:24.368Z,19.85
2022-08-30T19:41:50.976Z,19.72
2022-08-30T19:44:17.946Z,19.58
2022-08-30T19:46:44.525Z,19.74
2022-08-30T19:49:11.309Z,19.53
2022-08-30T19:51:39.746Z,19.50
2022-08-30T19:54:14.055Z,19.48
2022-08-30T19:56:40.795Z,19.42
2022-08-30T19:59:07.547Z,19.42
2022-08-30T20:01:34.550Z,19.61
2022-08-30T20:04:02.500Z,19.47
2022-08-30T20:06:29.767Z,19.49
2022-08-30T20:08:56.641Z,19.32
2022-08-30T20:11:25.279Z,19.23
2022-08-30T20:13:51.870Z,19.48
2022-08-30T20:16:19.029Z,19.37
2022-08-30T20:18:45.883Z,19.18
2022-08-30T20:21:14.470Z,19.10
2022-08-30T20:23:43.122Z,19.19
2022-08-30T20:26:11.407Z,19.14
2022-08-30T20:28:38.588Z,19.08
2022-08-30T20:31:07.296Z,19.09
2022-08-30T20:33:37.521Z,19.02
2022-08-30T20:36:09.768Z,19.15
2022-08-30T20:38:36.575Z,19.12
2022-08-30T20:41:12.985Z,19.31
2022-08-30T20:43:40.243Z,19.09
2022-08-30T20:46:15.631Z,19.15
2022-08-30T20:48:43.533Z,19.20
2022-08-30T20:51:13.062Z,19.16
2022-08-30T20:53:39.626Z,19.12
2022-08-30T20:56:12.265Z,19.15
2022-08-30T20:58:39.050Z,19.20
2022-08-30T21:01:08.735Z,19.28
2022-08-30T21:03:36.652Z,19.33
2022-08-30T21:06:04.015Z,19.08
2022-08-30T21:08:30.631Z,19.05
2022-08-30T21:10:57.558Z,19.31
2022-08-30T21:13:24.420Z,19.30
2022-08-30T21:15:53.154Z,19.28
2022-08-30T21:18:21.553Z,19.35
2022-08-30T21:20:48.138Z,19.26
2022-08-30T21:23:15.365Z,19.23
2022-08-30T21:25:43.360Z,19.30
2022-08-30T21:28:10.522Z,19.28
2022-08-30T21:30:37.794Z,19.31
2022-08-30T21:33:05.971Z,19.22
2022-08-30T21:35:51.491Z,19.25
2022-08-30T21:38:19.320Z,19.13
2022-08-30T21:40:46.395Z,19.00
2022-08-30T21:43:13.005Z,18.92
2022-08-30T21:45:44.806Z,19.01
2022-08-30T21:48:13.106Z,19.04
2022-08-30T21:50:41.510Z,18.87
2022-08-30T21:53:08.248Z,19.14
2022-08-30T21:55:34.858Z,19.03
2022-08-30T21:58:01.461Z,18.91
2022-08-30T22:00:30.497Z,18.69
2022-08-30T22:02:57.577Z,18.69
2022-08-30T22:05:24.284Z,18.66
2022-08-30T22:07:50.908Z,18.73
2022-08-30T22:10:18.131Z,18.69
2022-08-30T22:12:44.712Z,18.68
2022-08-30T22:15:11.614Z,18.70
2022-08-30T22:17:38.203Z,18.72
2022-08-30T22:20:06.375Z,18.78
2022-08-30T22:22:33.190Z,18.77
2022-08-30T22:24:59.783Z,18.87
2022-08-30T22:27:26.685Z,18.87
2022-08-30T22:29:53.275Z,18.90
2022-08-30T22:32:19.933Z,18.71
2022-08-30T22:34:47.055Z,18.66
2022-08-30T22:37:13.897Z,18.80
2022-08-30T22:39:40.455Z,18.74
2022-08-30T22:42:09.766Z,18.83
2022-08-30T22:44:36.539Z,18.74
2022-08-30T22:47:03.146Z,18.76
2022-08-30T22:49:29.724Z,18.93
2022-08-30T22:51:56.287Z,18.87
2022-08-30T22:54:22.826Z,18.82
2022-08-30T22:56:50.005Z,18.78
2022-08-30T22:59:16.796Z,18.67
2022-08-30T23:01:43.756Z,18.71
2022-08-30T23:04:11.755Z,18.80
2022-08-30T23:06:39.308Z,18.81
2022-08-30T23:09:07.507Z,18.69
2022-08-30T23:11:35.065Z,18.74
2022-08-30T23:14:03.246Z,18.78
2022-08-30T23:16:30.689Z,18.59
2022-08-30T23:18:57.464Z,18.54
2022-08-30T23:21:26.829Z,18.54
2022-08-30T23:24:14.389Z,18.43
2022-08-30T23:27:01.432Z,18.52
2022-08-30T23:29:48.768Z,18.48
2022-08-30T23:32:34.179Z,18.54
2022-08-30T23:35:19.704Z,18.52
2022-08-30T23:38:05.882Z,18.44
2022-08-30T23:40:51.127Z,18.28
2022-08-30T23:43:36.796Z,18.18
2022-08-30T23:46:22.129Z,18.15
2022-08-30T23:49:07.852Z,18.16
2022-08-30T23:51:54.186Z,18.16
2022-08-30T23:54:39.591Z,18.09
2022-08-30T23:57:24.985Z,18.12
